sensor_id;sensor_type;location;lat;lon;timestamp;P1;durP1;ratioP1;P2;durP2;ratioP2
27303;SDS011;14791;52.392;13.092;2022-10-30T00:01:20;10.78;;;8.78;;
27303;SDS011;14791;52.392;13.092;2022-10-30T00:03:49;8.05;;;7.35;;
27303;SDS011;14791;52.392;13.092;2022-10-30T00:06:18;7.45;;;6.95;;
27303;SDS011;14791;52.392;13.092;2022-10-30T00:08:47;8.60;;;7.90;;
27303;SDS011;14791;52.392;13.092;2022-10-30T00:11:16;8.70;;;8.03;;
27303;SDS011;14791;52.392;13.092;2022-10-30T00:13:45;8.80;;;7.90;;
27303;SDS011;14791;52.392;13.092;2022-10-30T00:16:14;8.50;;;8.00;;
27303;SDS011;14791;52.392;13.092;2022-10-30T00:18:43;11.83;;;8.18;;
27303;SDS011;14791;52.392;13.092;2022-10-30T00:21:12;8.75;;;7.97;;
27303;SDS011;14791;52.392;13.092;2022-10-30T00:23:46;7.08;;;6.67;;
27303;SDS011;14791;52.392;13.092;2022-10-30T00:26:17;7.12;;;6.62;;
27303;SDS011;14791;52.392;13.092;2022-10-30T00:28:48;7.92;;;7.17;;
27303;SDS011;14791;52.392;13.092;2022-10-30T00:31:18;8.43;;;7.72;;
27303;SDS011;14791;52.392;13.092;2022-10-30T00:33:54;8.15;;;7.65;;
27303;SDS011;14791;52.392;13.092;2022-10-30T00:36:19;7.53;;;6.83;;
27303;SDS011;14791;52.392;13.092;2022-10-30T00:38:49;8.30;;;7.62;;
27303;SDS011;14791;52.392;13.092;2022-10-30T00:41:21;7.25;;;6.55;;
27303;SDS011;14791;52.392;13.092;2022-10-30T00:43:51;7.20;;;6.60;;
27303;SDS011;14791;52.392;13.092;2022-10-30T00:46:25;7.00;;;6.40;;
27303;SDS011;14791;52.392;13.092;2022-10-30T00:49:03;6.87;;;6.37;;
27303;SDS011;14791;52.392;13.092;2022-10-30T00:51:40;5.97;;;5.62;;
27303;SDS011;14791;52.392;13.092;2022-10-30T00:54:10;6.92;;;6.30;;
27303;SDS011;14791;52.392;13.092;2022-10-30T00:56:41;6.72;;;6.33;;
27303;SDS011;14791;52.392;13.092;2022-10-30T00:59:14;7.85;;;7.25;;
27303;SDS011;14791;52.392;13.092;2022-10-30T01:01:44;7.15;;;6.72;;
27303;SDS011;14791;52.392;13.092;2022-10-30T01:04:14;7.12;;;6.50;;
27303;SDS011;14791;52.392;13.092;2022-10-30T01:06:45;6.45;;;5.95;;
27303;SDS011;14791;52.392;13.092;2022-10-30T01:09:18;6.22;;;5.87;;
27303;SDS011;14791;52.392;13.092;2022-10-30T01:11:48;5.70;;;5.30;;
27303;SDS011;14791;52.392;13.092;2022-10-30T01:14:17;5.80;;;5.50;;
27303;SDS011;14791;52.392;13.092;2022-10-30T01:19:59;6.65;;;6.08;;
27303;SDS011;14791;52.392;13.092;2022-10-30T01:34:19;7.72;;;7.00;;
27303;SDS011;14791;52.392;13.092;2022-10-30T01:36:51;6.67;;;6.28;;
27303;SDS011;14791;52.392;13.092;2022-10-30T01:39:30;8.23;;;7.40;;
27303;SDS011;14791;52.392;13.092;2022-10-30T01:41:56;6.65;;;6.17;;
27303;SDS011;14791;52.392;13.092;2022-10-30T01:44:27;6.95;;;6.47;;
27303;SDS011;14791;52.392;13.092;2022-10-30T01:49:46;5.87;;;5.47;;
27303;SDS011;14791;52.392;13.092;2022-10-30T01:54:54;6.95;;;6.28;;
27303;SDS011;14791;52.392;13.092;2022-10-30T01:57:41;6.45;;;6.05;;
27303;SDS011;14791;52.392;13.092;2022-10-30T02:00:13;7.08;;;6.58;;
27303;SDS011;14791;52.392;13.092;2022-10-30T02:02:47;6.75;;;6.45;;
27303;SDS011;14791;52.392;13.092;2022-10-30T02:08:07;6.12;;;5.62;;
27303;SDS011;14791;52.392;13.092;2022-10-30T02:10:37;6.58;;;5.95;;
27303;SDS011;14791;52.392;13.092;2022-10-30T02:13:08;6.80;;;6.47;;
27303;SDS011;14791;52.392;13.092;2022-10-30T02:15:37;6.05;;;5.55;;
27303;SDS011;14791;52.392;13.092;2022-10-30T02:18:08;6.78;;;6.20;;
27303;SDS011;14791;52.392;13.092;2022-10-30T02:20:39;6.17;;;5.78;;
27303;SDS011;14791;52.392;13.092;2022-10-30T02:23:11;6.53;;;6.00;;
27303;SDS011;14791;52.392;13.092;2022-10-30T02:25:41;5.53;;;5.33;;
27303;SDS011;14791;52.392;13.092;2022-10-30T02:28:10;6.62;;;6.22;;
27303;SDS011;14791;52.392;13.092;2022-10-30T02:30:39;6.72;;;6.42;;
27303;SDS011;14791;52.392;13.092;2022-10-30T02:33:11;6.33;;;6.03;;
27303;SDS011;14791;52.392;13.092;2022-10-30T02:35:40;7.08;;;6.28;;
27303;SDS011;14791;52.392;13.092;2022-10-30T02:38:09;6.03;;;5.72;;
27303;SDS011;14791;52.392;13.092;2022-10-30T02:40:38;5.78;;;5.30;;
27303;SDS011;14791;52.392;13.092;2022-10-30T02:43:07;6.37;;;5.92;;
27303;SDS011;14791;52.392;13.092;2022-10-30T02:45:36;6.95;;;6.45;;
27303;SDS011;14791;52.392;13.092;2022-10-30T02:48:05;6.72;;;6.28;;
27303;SDS011;14791;52.392;13.092;2022-10-30T02:50:34;6.58;;;5.97;;
27303;SDS011;14791;52.392;13.092;2022-10-30T02:53:03;6.67;;;6.17;;
27303;SDS011;14791;52.392;13.092;2022-10-30T02:55:31;6.55;;;6.15;;
27303;SDS011;14791;52.392;13.092;2022-10-30T02:58:00;6.25;;;5.83;;
27303;SDS011;14791;52.392;13.092;2022-10-30T03:00:30;6.25;;;5.95;;
27303;SDS011;14791;52.392;13.092;2022-10-30T03:02:59;5.85;;;5.53;;
27303;SDS011;14791;52.392;13.092;2022-10-30T03:05:28;5.85;;;5.55;;
27303;SDS011;14791;52.392;13.092;2022-10-30T03:07:57;5.03;;;4.60;;
27303;SDS011;14791;52.392;13.092;2022-10-30T03:10:26;5.22;;;4.72;;
27303;SDS011;14791;52.392;13.092;2022-10-30T03:12:57;5.42;;;5.03;;
27303;SDS011;14791;52.392;13.092;2022-10-30T03:15:26;5.05;;;4.85;;
27303;SDS011;14791;52.392;13.092;2022-10-30T03:17:55;5.22;;;4.92;;
27303;SDS011;14791;52.392;13.092;2022-10-30T03:20:24;5.65;;;5.35;;
27303;SDS011;14791;52.392;13.092;2022-10-30T03:22:53;5.75;;;5.42;;
27303;SDS011;14791;52.392;13.092;2022-10-30T03:25:22;5.83;;;5.53;;
27303;SDS011;14791;52.392;13.092;2022-10-30T03:27:53;5.55;;;5.10;;
27303;SDS011;14791;52.392;13.092;2022-10-30T03:30:22;5.50;;;5.20;;
27303;SDS011;14791;52.392;13.092;2022-10-30T03:32:51;5.53;;;5.12;;
27303;SDS011;14791;52.392;13.092;2022-10-30T03:35:20;5.87;;;5.47;;
27303;SDS011;14791;52.392;13.092;2022-10-30T03:37:50;6.42;;;6.12;;
27303;SDS011;14791;52.392;13.092;2022-10-30T03:40:19;5.00;;;4.70;;
27303;SDS011;14791;52.392;13.092;2022-10-30T03:42:49;5.65;;;5.12;;
27303;SDS011;14791;52.392;13.092;2022-10-30T03:45:18;5.67;;;5.45;;
27303;SDS011;14791;52.392;13.092;2022-10-30T03:47:47;6.28;;;5.87;;
27303;SDS011;14791;52.392;13.092;2022-10-30T03:50:16;5.10;;;4.90;;
27303;SDS011;14791;52.392;13.092;2022-10-30T03:52:44;4.83;;;4.50;;
27303;SDS011;14791;52.392;13.092;2022-10-30T03:55:14;5.20;;;4.90;;
27303;SDS011;14791;52.392;13.092;2022-10-30T03:57:43;6.12;;;5.37;;
27303;SDS011;14791;52.392;13.092;2022-10-30T04:00:14;5.35;;;5.08;;
27303;SDS011;14791;52.392;13.092;2022-10-30T04:02:55;5.53;;;5.22;;
27303;SDS011;14791;52.392;13.092;2022-10-30T04:05:25;5.03;;;4.80;;
27303;SDS011;14791;52.392;13.092;2022-10-30T04:07:57;5.78;;;5.28;;
27303;SDS011;14791;52.392;13.092;2022-10-30T04:10:29;5.47;;;5.17;;
27303;SDS011;14791;52.392;13.092;2022-10-30T04:13:01;5.60;;;5.40;;
27303;SDS011;14791;52.392;13.092;2022-10-30T04:15:32;5.97;;;5.58;;
27303;SDS011;14791;52.392;13.092;2022-10-30T04:18:01;5.42;;;5.03;;
27303;SDS011;14791;52.392;13.092;2022-10-30T04:20:31;5.83;;;5.50;;
27303;SDS011;14791;52.392;13.092;2022-10-30T04:23:01;5.70;;;5.30;;
27303;SDS011;14791;52.392;13.092;2022-10-30T04:25:32;6.12;;;5.72;;
27303;SDS011;14791;52.392;13.092;2022-10-30T04:28:02;5.00;;;4.60;;
27303;SDS011;14791;52.392;13.092;2022-10-30T04:30:32;5.28;;;4.97;;
27303;SDS011;14791;52.392;13.092;2022-10-30T04:33:04;5.42;;;5.12;;
27303;SDS011;14791;52.392;13.092;2022-10-30T04:35:34;5.30;;;5.00;;
27303;SDS011;14791;52.392;13.092;2022-10-30T04:38:07;4.65;;;4.45;;
27303;SDS011;14791;52.392;13.092;2022-10-30T04:40:39;5.67;;;5.37;;
27303;SDS011;14791;52.392;13.092;2022-10-30T04:43:10;5.00;;;4.80;;
27303;SDS011;14791;52.392;13.092;2022-10-30T04:45:41;6.15;;;5.58;;
27303;SDS011;14791;52.392;13.092;2022-10-30T04:48:15;5.50;;;5.28;;
27303;SDS011;14791;52.392;13.092;2022-10-30T04:50:46;5.55;;;5.28;;
27303;SDS011;14791;52.392;13.092;2022-10-30T04:53:17;5.15;;;4.87;;
27303;SDS011;14791;52.392;13.092;2022-10-30T04:55:52;5.67;;;5.28;;
27303;SDS011;14791;52.392;13.092;2022-10-30T04:58:22;5.50;;;5.20;;
27303;SDS011;14791;52.392;13.092;2022-10-30T05:00:59;6.03;;;5.62;;
27303;SDS011;14791;52.392;13.092;2022-10-30T05:03:29;4.85;;;4.65;;
27303;SDS011;14791;52.392;13.092;2022-10-30T05:05:59;5.28;;;4.97;;
27303;SDS011;14791;52.392;13.092;2022-10-30T05:08:30;5.72;;;5.22;;
27303;SDS011;14791;52.392;13.092;2022-10-30T05:11:02;4.78;;;4.58;;
27303;SDS011;14791;52.392;13.092;2022-10-30T05:13:32;5.53;;;4.92;;
27303;SDS011;14791;52.392;13.092;2022-10-30T05:16:01;5.80;;;4.78;;
27303;SDS011;14791;52.392;13.092;2022-10-30T05:18:31;5.80;;;5.40;;
27303;SDS011;14791;52.392;13.092;2022-10-30T05:21:01;7.03;;;6.42;;
27303;SDS011;14791;52.392;13.092;2022-10-30T05:23:30;6.12;;;5.62;;
27303;SDS011;14791;52.392;13.092;2022-10-30T05:26:00;5.30;;;5.03;;
27303;SDS011;14791;52.392;13.092;2022-10-30T05:28:29;5.22;;;5.03;;
27303;SDS011;14791;52.392;13.092;2022-10-30T05:30:58;4.25;;;4.05;;
27303;SDS011;14791;52.392;13.092;2022-10-30T05:33:36;5.17;;;4.95;;
27303;SDS011;14791;52.392;13.092;2022-10-30T05:36:05;5.50;;;5.10;;
27303;SDS011;14791;52.392;13.092;2022-10-30T05:38:34;5.58;;;5.30;;
27303;SDS011;14791;52.392;13.092;2022-10-30T05:41:05;5.42;;;5.15;;
27303;SDS011;14791;52.392;13.092;2022-10-30T05:43:34;6.70;;;6.10;;
27303;SDS011;14791;52.392;13.092;2022-10-30T05:46:03;6.25;;;5.75;;
27303;SDS011;14791;52.392;13.092;2022-10-30T05:48:32;5.75;;;5.45;;
27303;SDS011;14791;52.392;13.092;2022-10-30T05:51:02;6.05;;;5.65;;
27303;SDS011;14791;52.392;13.092;2022-10-30T05:53:32;5.65;;;5.42;;
27303;SDS011;14791;52.392;13.092;2022-10-30T05:56:02;5.87;;;5.45;;
27303;SDS011;14791;52.392;13.092;2022-10-30T05:58:33;5.50;;;5.20;;
27303;SDS011;14791;52.392;13.092;2022-10-30T06:01:08;5.67;;;5.25;;
27303;SDS011;14791;52.392;13.092;2022-10-30T06:03:41;5.40;;;5.15;;
27303;SDS011;14791;52.392;13.092;2022-10-30T06:06:11;4.97;;;4.70;;
27303;SDS011;14791;52.392;13.092;2022-10-30T06:08:42;5.25;;;4.92;;
27303;SDS011;14791;52.392;13.092;2022-10-30T06:11:31;5.17;;;4.78;;
27303;SDS011;14791;52.392;13.092;2022-10-30T06:14:00;5.22;;;4.90;;
27303;SDS011;14791;52.392;13.092;2022-10-30T06:16:37;5.70;;;5.30;;
27303;SDS011;14791;52.392;13.092;2022-10-30T06:19:14;5.33;;;4.95;;
27303;SDS011;14791;52.392;13.092;2022-10-30T06:21:43;5.70;;;5.28;;
27303;SDS011;14791;52.392;13.092;2022-10-30T06:24:13;5.35;;;4.97;;
27303;SDS011;14791;52.392;13.092;2022-10-30T06:26:44;5.90;;;5.30;;
27303;SDS011;14791;52.392;13.092;2022-10-30T06:29:14;6.12;;;5.80;;
27303;SDS011;14791;52.392;13.092;2022-10-30T06:31:43;5.85;;;5.45;;
27303;SDS011;14791;52.392;13.092;2022-10-30T06:34:12;4.75;;;4.45;;
27303;SDS011;14791;52.392;13.092;2022-10-30T06:36:41;6.05;;;5.65;;
27303;SDS011;14791;52.392;13.092;2022-10-30T06:39:11;5.62;;;5.30;;
27303;SDS011;14791;52.392;13.092;2022-10-30T06:41:41;5.47;;;5.15;;
27303;SDS011;14791;52.392;13.092;2022-10-30T06:44:21;6.35;;;5.53;;
27303;SDS011;14791;52.392;13.092;2022-10-30T06:46:51;5.87;;;5.58;;
27303;SDS011;14791;52.392;13.092;2022-10-30T06:49:20;5.80;;;5.40;;
27303;SDS011;14791;52.392;13.092;2022-10-30T06:51:50;5.00;;;4.70;;
27303;SDS011;14791;52.392;13.092;2022-10-30T06:54:19;6.17;;;5.78;;
27303;SDS011;14791;52.392;13.092;2022-10-30T06:56:56;5.58;;;5.20;;
27303;SDS011;14791;52.392;13.092;2022-10-30T06:59:43;6.10;;;5.60;;
27303;SDS011;14791;52.392;13.092;2022-10-30T07:02:22;5.42;;;5.03;;
27303;SDS011;14791;52.392;13.092;2022-10-30T07:04:53;5.28;;;4.80;;
27303;SDS011;14791;52.392;13.092;2022-10-30T07:07:22;5.42;;;5.22;;
27303;SDS011;14791;52.392;13.092;2022-10-30T07:09:51;5.58;;;5.28;;
27303;SDS011;14791;52.392;13.092;2022-10-30T07:12:21;5.53;;;5.12;;
27303;SDS011;14791;52.392;13.092;2022-10-30T07:15:10;5.30;;;5.00;;
27303;SDS011;14791;52.392;13.092;2022-10-30T07:17:40;4.83;;;4.62;;
27303;SDS011;14791;52.392;13.092;2022-10-30T07:20:11;5.95;;;5.45;;
27303;SDS011;14791;52.392;13.092;2022-10-30T07:22:40;5.20;;;4.90;;
27303;SDS011;14791;52.392;13.092;2022-10-30T07:25:09;6.97;;;6.40;;
27303;SDS011;14791;52.392;13.092;2022-10-30T07:27:46;5.78;;;5.37;;
27303;SDS011;14791;52.392;13.092;2022-10-30T07:30:21;5.40;;;5.00;;
27303;SDS011;14791;52.392;13.092;2022-10-30T07:33:12;5.70;;;5.40;;
27303;SDS011;14791;52.392;13.092;2022-10-30T07:35:55;5.45;;;5.03;;
27303;SDS011;14791;52.392;13.092;2022-10-30T07:38:29;5.90;;;5.55;;
27303;SDS011;14791;52.392;13.092;2022-10-30T07:41:00;6.87;;;5.28;;
27303;SDS011;14791;52.392;13.092;2022-10-30T07:43:46;5.50;;;5.10;;
27303;SDS011;14791;52.392;13.092;2022-10-30T07:46:33;5.65;;;5.35;;
27303;SDS011;14791;52.392;13.092;2022-10-30T07:49:19;5.47;;;4.97;;
27303;SDS011;14791;52.392;13.092;2022-10-30T07:51:50;5.47;;;4.97;;
27303;SDS011;14791;52.392;13.092;2022-10-30T07:54:19;5.42;;;5.03;;
27303;SDS011;14791;52.392;13.092;2022-10-30T07:56:49;5.25;;;4.85;;
27303;SDS011;14791;52.392;13.092;2022-10-30T07:59:36;5.58;;;5.10;;
27303;SDS011;14791;52.392;13.092;2022-10-30T08:02:13;5.65;;;5.30;;
27303;SDS011;14791;52.392;13.092;2022-10-30T08:04:59;7.33;;;6.58;;
27303;SDS011;14791;52.392;13.092;2022-10-30T08:07:31;5.42;;;5.05;;
27303;SDS011;14791;52.392;13.092;2022-10-30T08:10:02;5.33;;;5.03;;
27303;SDS011;14791;52.392;13.092;2022-10-30T08:12:32;5.72;;;5.22;;
27303;SDS011;14791;52.392;13.092;2022-10-30T08:15:01;5.70;;;5.40;;
27303;SDS011;14791;52.392;13.092;2022-10-30T08:17:31;6.17;;;5.65;;
27303;SDS011;14791;52.392;13.092;2022-10-30T08:20:00;5.42;;;4.92;;
27303;SDS011;14791;52.392;13.092;2022-10-30T08:22:30;6.03;;;5.67;;
27303;SDS011;14791;52.392;13.092;2022-10-30T08:25:00;5.50;;;5.10;;
27303;SDS011;14791;52.392;13.092;2022-10-30T08:27:30;5.72;;;4.65;;
27303;SDS011;14791;52.392;13.092;2022-10-30T08:29:59;5.20;;;4.97;;
27303;SDS011;14791;52.392;13.092;2022-10-30T08:32:28;4.37;;;4.08;;
27303;SDS011;14791;52.392;13.092;2022-10-30T08:35:16;5.10;;;4.80;;
27303;SDS011;14791;52.392;13.092;2022-10-30T08:37:45;5.00;;;4.80;;
27303;SDS011;14791;52.392;13.092;2022-10-30T08:40:14;5.03;;;4.67;;
27303;SDS011;14791;52.392;13.092;2022-10-30T08:42:50;4.87;;;4.47;;
27303;SDS011;14791;52.392;13.092;2022-10-30T08:45:21;4.55;;;4.30;;
27303;SDS011;14791;52.392;13.092;2022-10-30T08:48:02;4.17;;;3.98;;
27303;SDS011;14791;52.392;13.092;2022-10-30T08:50:28;4.92;;;4.53;;
27303;SDS011;14791;52.392;13.092;2022-10-30T08:53:00;4.60;;;4.20;;
27303;SDS011;14791;52.392;13.092;2022-10-30T08:55:31;4.03;;;3.75;;
27303;SDS011;14791;52.392;13.092;2022-10-30T08:58:02;3.65;;;3.55;;
27303;SDS011;14791;52.392;13.092;2022-10-30T09:00:31;3.65;;;3.45;;
27303;SDS011;14791;52.392;13.092;2022-10-30T09:03:05;3.62;;;3.33;;
27303;SDS011;14791;52.392;13.092;2022-10-30T09:05:39;4.35;;;3.70;;
27303;SDS011;14791;52.392;13.092;2022-10-30T09:08:18;6.05;;;4.28;;
27303;SDS011;14791;52.392;13.092;2022-10-30T09:10:58;4.45;;;4.17;;
27303;SDS011;14791;52.392;13.092;2022-10-30T09:13:28;3.80;;;3.50;;
27303;SDS011;14791;52.392;13.092;2022-10-30T09:16:00;3.72;;;3.52;;
27303;SDS011;14791;52.392;13.092;2022-10-30T09:18:32;3.90;;;3.58;;
27303;SDS011;14791;52.392;13.092;2022-10-30T09:21:01;4.92;;;3.83;;
27303;SDS011;14791;52.392;13.092;2022-10-30T09:23:31;4.08;;;3.77;;
27303;SDS011;14791;52.392;13.092;2022-10-30T09:26:02;4.47;;;4.08;;
27303;SDS011;14791;52.392;13.092;2022-10-30T09:28:35;4.45;;;4.15;;
27303;SDS011;14791;52.392;13.092;2022-10-30T09:31:22;3.67;;;3.37;;
27303;SDS011;14791;52.392;13.092;2022-10-30T09:33:52;3.83;;;3.55;;
27303;SDS011;14791;52.392;13.092;2022-10-30T09:36:28;3.95;;;3.65;;
27303;SDS011;14791;52.392;13.092;2022-10-30T09:38:59;3.87;;;3.58;;
27303;SDS011;14791;52.392;13.092;2022-10-30T09:47:19;3.62;;;3.33;;
27303;SDS011;14791;52.392;13.092;2022-10-30T09:52:51;4.45;;;4.00;;
27303;SDS011;14791;52.392;13.092;2022-10-30T09:55:23;3.58;;;3.30;;
27303;SDS011;14791;52.392;13.092;2022-10-30T09:58:27;3.77;;;3.58;;
27303;SDS011;14791;52.392;13.092;2022-10-30T10:01:11;3.58;;;3.27;;
27303;SDS011;14791;52.392;13.092;2022-10-30T10:06:25;3.55;;;3.25;;
27303;SDS011;14791;52.392;13.092;2022-10-30T10:09:19;4.22;;;3.17;;
27303;SDS011;14791;52.392;13.092;2022-10-30T10:12:03;3.70;;;3.37;;
27303;SDS011;14791;52.392;13.092;2022-10-30T10:14:37;3.98;;;3.25;;
27303;SDS011;14791;52.392;13.092;2022-10-30T10:17:14;3.40;;;3.17;;
27303;SDS011;14791;52.392;13.092;2022-10-30T10:19:45;3.70;;;3.20;;
27303;SDS011;14791;52.392;13.092;2022-10-30T10:22:20;3.92;;;3.25;;
27303;SDS011;14791;52.392;13.092;2022-10-30T10:24:51;4.58;;;3.40;;
27303;SDS011;14791;52.392;13.092;2022-10-30T10:30:17;3.00;;;2.80;;
27303;SDS011;14791;52.392;13.092;2022-10-30T10:41:15;2.98;;;2.77;;
27303;SDS011;14791;52.392;13.092;2022-10-30T10:46:40;4.47;;;2.90;;
27303;SDS011;14791;52.392;13.092;2022-10-30T10:52:15;2.85;;;2.72;;
27303;SDS011;14791;52.392;13.092;2022-10-30T10:54:56;3.08;;;2.75;;
27303;SDS011;14791;52.392;13.092;2022-10-30T11:00:03;3.65;;;2.85;;
27303;SDS011;14791;52.392;13.092;2022-10-30T11:03:00;4.75;;;2.92;;
27303;SDS011;14791;52.392;13.092;2022-10-30T11:05:52;3.83;;;3.52;;
27303;SDS011;14791;52.392;13.092;2022-10-30T11:08:30;6.53;;;3.45;;
27303;SDS011;14791;52.392;13.092;2022-10-30T11:11:02;3.75;;;3.10;;
27303;SDS011;14791;52.392;13.092;2022-10-30T11:13:36;2.98;;;2.77;;
27303;SDS011;14791;52.392;13.092;2022-10-30T11:19:07;4.05;;;2.80;;
27303;SDS011;14791;52.392;13.092;2022-10-30T11:21:41;2.83;;;2.62;;
27303;SDS011;14791;52.392;13.092;2022-10-30T11:27:16;3.37;;;3.08;;
27303;SDS011;14791;52.392;13.092;2022-10-30T11:30:02;3.25;;;2.95;;
27303;SDS011;14791;52.392;13.092;2022-10-30T11:32:32;3.72;;;3.27;;
27303;SDS011;14791;52.392;13.092;2022-10-30T11:35:10;3.92;;;3.42;;
27303;SDS011;14791;52.392;13.092;2022-10-30T11:37:37;3.50;;;2.72;;
27303;SDS011;14791;52.392;13.092;2022-10-30T11:42:51;3.90;;;2.50;;
27303;SDS011;14791;52.392;13.092;2022-10-30T11:45:24;3.60;;;3.05;;
27303;SDS011;14791;52.392;13.092;2022-10-30T11:47:56;3.00;;;2.80;;
27303;SDS011;14791;52.392;13.092;2022-10-30T11:50:27;2.95;;;2.85;;
27303;SDS011;14791;52.392;13.092;2022-10-30T11:53:01;3.58;;;3.20;;
27303;SDS011;14791;52.392;13.092;2022-10-30T11:55:35;3.95;;;3.50;;
27303;SDS011;14791;52.392;13.092;2022-10-30T11:58:16;3.58;;;3.30;;
27303;SDS011;14791;52.392;13.092;2022-10-30T12:00:40;3.95;;;3.05;;
27303;SDS011;14791;52.392;13.092;2022-10-30T12:03:28;2.62;;;2.45;;
27303;SDS011;14791;52.392;13.092;2022-10-30T12:09:01;3.10;;;2.83;;
27303;SDS011;14791;52.392;13.092;2022-10-30T12:11:39;3.27;;;3.02;;
27303;SDS011;14791;52.392;13.092;2022-10-30T12:14:25;4.20;;;3.72;;
27303;SDS011;14791;52.392;13.092;2022-10-30T12:16:51;4.25;;;3.00;;
27303;SDS011;14791;52.392;13.092;2022-10-30T12:19:24;2.95;;;2.75;;
27303;SDS011;14791;52.392;13.092;2022-10-30T12:21:53;4.57;;;3.43;;
27303;SDS011;14791;52.392;13.092;2022-10-30T12:24:31;3.27;;;2.98;;
27303;SDS011;14791;52.392;13.092;2022-10-30T12:27:05;3.25;;;3.05;;
27303;SDS011;14791;52.392;13.092;2022-10-30T12:29:42;3.72;;;2.62;;
27303;SDS011;14791;52.392;13.092;2022-10-30T12:32:32;2.83;;;2.62;;
27303;SDS011;14791;52.392;13.092;2022-10-30T12:35:03;2.90;;;2.70;;
27303;SDS011;14791;52.392;13.092;2022-10-30T12:37:51;3.20;;;2.85;;
27303;SDS011;14791;52.392;13.092;2022-10-30T12:40:26;3.62;;;2.47;;
27303;SDS011;14791;52.392;13.092;2022-10-30T12:42:59;2.77;;;2.58;;
27303;SDS011;14791;52.392;13.092;2022-10-30T12:45:42;3.00;;;2.70;;
27303;SDS011;14791;52.392;13.092;2022-10-30T12:53:38;3.22;;;2.40;;
27303;SDS011;14791;52.392;13.092;2022-10-30T12:56:14;2.70;;;2.58;;
27303;SDS011;14791;52.392;13.092;2022-10-30T12:58:49;2.85;;;2.65;;
27303;SDS011;14791;52.392;13.092;2022-10-30T13:01:34;3.10;;;2.90;;
27303;SDS011;14791;52.392;13.092;2022-10-30T13:04:15;2.85;;;2.55;;
27303;SDS011;14791;52.392;13.092;2022-10-30T13:06:54;3.90;;;3.02;;
27303;SDS011;14791;52.392;13.092;2022-10-30T13:12:13;3.50;;;3.17;;
27303;SDS011;14791;52.392;13.092;2022-10-30T13:14:57;2.62;;;2.52;;
27303;SDS011;14791;52.392;13.092;2022-10-30T13:17:27;4.78;;;2.83;;
27303;SDS011;14791;52.392;13.092;2022-10-30T13:19:56;3.65;;;3.33;;
27303;SDS011;14791;52.392;13.092;2022-10-30T13:22:29;3.00;;;2.80;;
27303;SDS011;14791;52.392;13.092;2022-10-30T13:25:11;3.10;;;2.90;;
27303;SDS011;14791;52.392;13.092;2022-10-30T13:30:29;3.25;;;2.90;;
27303;SDS011;14791;52.392;13.092;2022-10-30T13:33:12;2.90;;;2.70;;
27303;SDS011;14791;52.392;13.092;2022-10-30T13:35:52;5.08;;;3.17;;
27303;SDS011;14791;52.392;13.092;2022-10-30T13:52:49;3.40;;;3.10;;
27303;SDS011;14791;52.392;13.092;2022-10-30T13:55:21;3.45;;;3.10;;
27303;SDS011;14791;52.392;13.092;2022-10-30T14:03:32;3.08;;;2.87;;
27303;SDS011;14791;52.392;13.092;2022-10-30T14:08:56;4.92;;;2.83;;
27303;SDS011;14791;52.392;13.092;2022-10-30T14:11:25;4.33;;;4.03;;
27303;SDS011;14791;52.392;13.092;2022-10-30T14:14:40;3.58;;;3.27;;
27303;SDS011;14791;52.392;13.092;2022-10-30T14:16:45;3.70;;;3.25;;
27303;SDS011;14791;52.392;13.092;2022-10-30T14:19:16;3.33;;;3.02;;
27303;SDS011;14791;52.392;13.092;2022-10-30T14:29:40;3.15;;;2.92;;
27303;SDS011;14791;52.392;13.092;2022-10-30T14:39:57;2.77;;;2.58;;
27303;SDS011;14791;52.392;13.092;2022-10-30T14:45:28;5.53;;;3.05;;
27303;SDS011;14791;52.392;13.092;2022-10-30T14:48:18;3.55;;;2.95;;
27303;SDS011;14791;52.392;13.092;2022-10-30T14:51:10;4.78;;;3.40;;
27303;SDS011;14791;52.392;13.092;2022-10-30T14:56:37;3.62;;;3.35;;
27303;SDS011;14791;52.392;13.092;2022-10-30T14:59:22;3.05;;;2.87;;
27303;SDS011;14791;52.392;13.092;2022-10-30T15:07:58;6.67;;;3.92;;
27303;SDS011;14791;52.392;13.092;2022-10-30T15:10:10;5.60;;;5.10;;
27303;SDS011;14791;52.392;13.092;2022-10-30T15:15:20;6.05;;;5.53;;
27303;SDS011;14791;52.392;13.092;2022-10-30T15:17:53;7.33;;;6.65;;
27303;SDS011;14791;52.392;13.092;2022-10-30T15:20:28;7.47;;;6.78;;
27303;SDS011;14791;52.392;13.092;2022-10-30T15:23:08;7.67;;;5.47;;
27303;SDS011;14791;52.392;13.092;2022-10-30T15:25:35;7.20;;;5.20;;
27303;SDS011;14791;52.392;13.092;2022-10-30T15:28:11;5.35;;;4.85;;
27303;SDS011;14791;52.392;13.092;2022-10-30T15:30:40;5.10;;;4.70;;
27303;SDS011;14791;52.392;13.092;2022-10-30T15:33:17;5.85;;;5.33;;
27303;SDS011;14791;52.392;13.092;2022-10-30T15:35:49;6.33;;;4.42;;
27303;SDS011;14791;52.392;13.092;2022-10-30T15:38:18;6.58;;;5.60;;
27303;SDS011;14791;52.392;13.092;2022-10-30T15:40:46;8.58;;;7.90;;
27303;SDS011;14791;52.392;13.092;2022-10-30T15:43:16;9.40;;;8.48;;
27303;SDS011;14791;52.392;13.092;2022-10-30T15:45:46;10.43;;;9.48;;
27303;SDS011;14791;52.392;13.092;2022-10-30T15:48:26;7.62;;;7.05;;
27303;SDS011;14791;52.392;13.092;2022-10-30T15:51:00;6.60;;;5.85;;
27303;SDS011;14791;52.392;13.092;2022-10-30T15:53:35;6.83;;;4.90;;
27303;SDS011;14791;52.392;13.092;2022-10-30T15:56:06;5.97;;;5.37;;
27303;SDS011;14791;52.392;13.092;2022-10-30T15:58:36;6.00;;;5.00;;
27303;SDS011;14791;52.392;13.092;2022-10-30T16:01:08;5.58;;;5.08;;
27303;SDS011;14791;52.392;13.092;2022-10-30T16:03:37;6.05;;;5.17;;
27303;SDS011;14791;52.392;13.092;2022-10-30T16:06:15;5.35;;;4.83;;
27303;SDS011;14791;52.392;13.092;2022-10-30T16:08:44;5.28;;;4.87;;
27303;SDS011;14791;52.392;13.092;2022-10-30T16:11:14;8.83;;;8.10;;
27303;SDS011;14791;52.392;13.092;2022-10-30T16:13:43;7.55;;;6.92;;
27303;SDS011;14791;52.392;13.092;2022-10-30T16:16:15;6.28;;;5.80;;
27303;SDS011;14791;52.392;13.092;2022-10-30T16:18:47;6.42;;;6.03;;
27303;SDS011;14791;52.392;13.092;2022-10-30T16:21:17;6.47;;;5.87;;
27303;SDS011;14791;52.392;13.092;2022-10-30T16:23:50;7.55;;;7.03;;
27303;SDS011;14791;52.392;13.092;2022-10-30T16:26:25;9.23;;;8.40;;
27303;SDS011;14791;52.392;13.092;2022-10-30T16:28:58;9.68;;;8.93;;
27303;SDS011;14791;52.392;13.092;2022-10-30T16:31:31;11.03;;;10.13;;
27303;SDS011;14791;52.392;13.092;2022-10-30T16:34:02;10.03;;;9.35;;
27303;SDS011;14791;52.392;13.092;2022-10-30T16:36:33;10.08;;;8.98;;
27303;SDS011;14791;52.392;13.092;2022-10-30T16:39:03;10.45;;;9.40;;
27303;SDS011;14791;52.392;13.092;2022-10-30T16:41:33;9.65;;;8.95;;
27303;SDS011;14791;52.392;13.092;2022-10-30T16:44:09;10.32;;;9.45;;
27303;SDS011;14791;52.392;13.092;2022-10-30T16:47:05;12.98;;;11.83;;
27303;SDS011;14791;52.392;13.092;2022-10-30T16:49:17;12.00;;;10.93;;
27303;SDS011;14791;52.392;13.092;2022-10-30T16:51:54;12.40;;;11.10;;
27303;SDS011;14791;52.392;13.092;2022-10-30T16:54:27;11.60;;;10.60;;
27303;SDS011;14791;52.392;13.092;2022-10-30T16:56:58;11.75;;;10.75;;
27303;SDS011;14791;52.392;13.092;2022-10-30T16:59:34;11.12;;;10.30;;
27303;SDS011;14791;52.392;13.092;2022-10-30T17:02:05;11.68;;;10.68;;
27303;SDS011;14791;52.392;13.092;2022-10-30T17:04:36;12.55;;;11.38;;
27303;SDS011;14791;52.392;13.092;2022-10-30T17:07:21;13.15;;;11.55;;
27303;SDS011;14791;52.392;13.092;2022-10-30T17:09:52;13.08;;;11.80;;
27303;SDS011;14791;52.392;13.092;2022-10-30T17:12:23;14.20;;;12.73;;
27303;SDS011;14791;52.392;13.092;2022-10-30T17:15:12;19.87;;;17.75;;
27303;SDS011;14791;52.392;13.092;2022-10-30T17:17:46;20.08;;;18.00;;